createdAt,value
2022-08-22T00:00:07.120Z,969.10
2022-08-22T00:01:07.093Z,969.19
2022-08-22T00:02:09.079Z,969.16
2022-08-22T00:02:49.120Z,969.25
2022-08-22T00:02:54.354Z,969.33
2022-08-22T00:02:55.811Z,969.15
2022-08-22T00:03:03.073Z,969.28
2022-08-22T00:03:03.073Z,969.36
2022-08-22T00:03:03.075Z,969.32
2022-08-22T00:03:06.788Z,969.17
2022-08-22T00:03:08.441Z,969.23
2022-08-22T00:03:10.196Z,969.27
2022-08-22T00:03:11.735Z,969.24
2022-08-22T00:03:22.626Z,969.12
2022-08-22T00:04:09.037Z,969.13
2022-08-22T00:05:07.029Z,969.15
2022-08-22T00:06:07.004Z,969.11
2022-08-22T00:07:06.982Z,969.12
2022-08-22T00:08:06.999Z,969.13
2022-08-22T00:09:06.996Z,969.15
2022-08-22T00:10:07.942Z,969.12
2022-08-22T00:11:07.056Z,969.10
2022-08-22T00:12:06.911Z,969.11
2022-08-22T00:13:06.981Z,969.16
2022-08-22T00:14:06.889Z,969.17
2022-08-22T00:15:06.859Z,969.13
2022-08-22T00:16:06.853Z,969.14
2022-08-22T00:17:06.839Z,969.07
2022-08-22T00:18:06.866Z,969.11
2022-08-22T00:19:06.784Z,969.12
2022-08-22T00:20:06.778Z,969.11
2022-08-22T00:21:06.750Z,969.06
2022-08-22T00:22:06.747Z,969.14
2022-08-22T00:23:06.858Z,969.11
2022-08-22T00:24:06.715Z,969.16
2022-08-22T00:25:06.698Z,969.12
2022-08-22T00:26:07.676Z,969.06
2022-08-22T00:27:06.670Z,969.12
2022-08-22T00:28:06.667Z,969.13
2022-08-22T00:29:06.623Z,969.11
2022-08-22T00:30:07.596Z,969.08
2022-08-22T00:31:06.597Z,969.13
2022-08-22T00:32:06.570Z,969.11
2022-08-22T00:33:06.675Z,969.13
2022-08-22T00:34:06.551Z,969.09
2022-08-22T00:35:06.526Z,969.07
2022-08-22T00:36:06.514Z,969.13
2022-08-22T00:37:06.488Z,969.08
2022-08-22T00:38:06.536Z,969.03
2022-08-22T00:39:06.465Z,969.04
2022-08-22T00:40:06.473Z,969.02
2022-08-22T00:41:06.423Z,969.05
2022-08-22T00:42:06.431Z,969.05
2022-08-22T00:43:06.463Z,969.04
2022-08-22T00:44:06.388Z,969.03
2022-08-22T00:45:06.378Z,969.04
2022-08-22T00:46:06.339Z,969.05
2022-08-22T00:47:06.329Z,969.03
2022-08-22T00:48:06.345Z,968.99
2022-08-22T00:49:06.297Z,969.01
2022-08-22T00:50:06.272Z,969.04
2022-08-22T00:51:06.262Z,968.99
2022-08-22T00:52:06.238Z,969.01
2022-08-22T00:53:06.310Z,969.01
2022-08-22T00:54:06.881Z,969.02
2022-08-22T00:55:07.282Z,969.02
2022-08-22T00:56:06.176Z,969.04
2022-08-22T00:57:06.158Z,969.06
2022-08-22T00:58:06.173Z,969.08
2022-08-22T00:59:08.543Z,969.04
2022-08-22T01:00:07.123Z,969.04
2022-08-22T01:01:06.139Z,969.03
2022-08-22T01:02:06.082Z,969.03
2022-08-22T01:03:06.130Z,969.08
2022-08-22T01:04:06.056Z,969.05
2022-08-22T01:05:06.065Z,969.08
2022-08-22T01:06:06.087Z,969.08
2022-08-22T01:07:06.014Z,969.05
2022-08-22T01:08:06.026Z,969.12
2022-08-22T01:09:05.974Z,969.07
2022-08-22T01:10:05.959Z,969.07
2022-08-22T01:11:05.935Z,969.06
2022-08-22T01:12:05.914Z,969.05
2022-08-22T01:13:06.057Z,969.02
2022-08-22T01:14:05.877Z,969.04
2022-08-22T01:15:05.882Z,969.04
2022-08-22T01:16:05.838Z,969.03
2022-08-22T01:17:05.915Z,969.01
2022-08-22T01:18:05.852Z,969.02
2022-08-22T01:19:05.792Z,969.06
2022-08-22T01:20:05.804Z,969.05
2022-08-22T01:21:05.762Z,969.00
2022-08-22T01:22:05.764Z,969.01
2022-08-22T01:23:05.822Z,969.08
2022-08-22T01:24:05.725Z,969.03
2022-08-22T01:25:05.695Z,968.98
2022-08-22T01:26:05.689Z,969.01
2022-08-22T01:27:05.674Z,969.01
2022-08-22T01:28:05.773Z,968.99
2022-08-22T01:29:05.629Z,969.02
2022-08-22T01:30:05.610Z,968.92
2022-08-22T01:31:05.611Z,969.00
2022-08-22T01:32:05.574Z,969.02
2022-08-22T01:33:05.703Z,968.97
2022-08-22T01:34:05.556Z,969.03
2022-08-22T01:35:06.562Z,969.02
2022-08-22T01:36:05.515Z,968.99
2022-08-22T01:37:05.508Z,968.96
2022-08-22T01:38:05.516Z,969.01
2022-08-22T01:39:05.535Z,969.03
2022-08-22T01:40:05.522Z,968.99
2022-08-22T01:41:05.433Z,968.95
2022-08-22T01:42:05.416Z,969.01
2022-08-22T01:43:05.447Z,968.96
2022-08-22T01:44:05.393Z,968.96
2022-08-22T01:45:05.372Z,968.95
2022-08-22T01:46:05.365Z,968.95
2022-08-22T01:47:05.337Z,969.04
2022-08-22T01:48:05.343Z,969.03
2022-08-22T01:49:05.330Z,969.05
2022-08-22T01:50:05.356Z,969.10
2022-08-22T01:51:05.264Z,969.05
2022-08-22T01:52:05.259Z,969.08
2022-08-22T01:53:05.384Z,969.08
2022-08-22T01:54:05.216Z,969.01
2022-08-22T01:55:05.194Z,969.04
2022-08-22T01:56:05.200Z,969.04
2022-08-22T01:57:05.189Z,969.08
2022-08-22T01:58:05.189Z,969.02
2022-08-22T01:59:05.133Z,969.04
2022-08-22T02:00:06.129Z,969.08
2022-08-22T02:01:05.185Z,969.02
2022-08-22T02:02:05.078Z,969.05
2022-08-22T02:03:05.183Z,969.03
2022-08-22T02:04:05.060Z,969.05
2022-08-22T02:05:05.046Z,969.08
2022-08-22T02:06:05.010Z,969.03
2022-08-22T02:07:05.006Z,969.06
2022-08-22T02:08:05.015Z,969.04
2022-08-22T02:09:04.970Z,969.03
2022-08-22T02:10:04.959Z,969.09
2022-08-22T02:11:04.930Z,969.07
2022-08-22T02:12:04.950Z,969.02
2022-08-22T02:13:06.060Z,969.05
2022-08-22T02:14:04.893Z,969.00
2022-08-22T02:15:04.883Z,969.05
2022-08-22T02:16:04.880Z,969.02
2022-08-22T02:17:04.829Z,969.01
2022-08-22T02:18:04.871Z,969.00
2022-08-22T02:19:04.801Z,968.99
2022-08-22T02:20:04.786Z,968.98
2022-08-22T02:21:04.761Z,969.05
2022-08-22T02:22:04.750Z,968.97
2022-08-22T02:23:04.730Z,969.04
2022-08-22T02:24:04.758Z,969.05
2022-08-22T02:25:06.917Z,969.01
2022-08-22T02:26:04.724Z,969.08
2022-08-22T02:27:04.678Z,969.00
2022-08-22T02:28:04.649Z,968.99
2022-08-22T02:29:04.663Z,969.04
2022-08-22T02:30:04.622Z,969.05
2022-08-22T02:31:04.603Z,969.01
2022-08-22T02:32:04.582Z,969.00
2022-08-22T02:33:04.685Z,968.96
2022-08-22T02:34:04.648Z,968.97
2022-08-22T02:35:04.537Z,968.94
2022-08-22T02:36:04.531Z,968.96
2022-08-22T02:37:04.506Z,968.90
2022-08-22T02:38:04.498Z,968.95
2022-08-22T02:39:04.505Z,968.93
2022-08-22T02:40:04.539Z,968.92
2022-08-22T02:41:04.437Z,968.90
2022-08-22T02:42:04.445Z,968.88
2022-08-22T02:43:04.406Z,968.92
2022-08-22T02:44:04.424Z,968.85
2022-08-22T02:45:04.397Z,968.86
2022-08-22T02:46:04.387Z,968.83
2022-08-22T02:47:04.349Z,968.85
2022-08-22T02:48:04.322Z,968.83
2022-08-22T02:49:04.374Z,968.89
2022-08-22T02:50:04.562Z,968.86
2022-08-22T02:51:04.280Z,968.88
2022-08-22T02:52:04.264Z,968.88
2022-08-22T02:53:04.299Z,968.84
2022-08-22T02:54:04.255Z,968.84
2022-08-22T02:55:04.233Z,968.84
2022-08-22T02:56:04.230Z,968.84
2022-08-22T02:57:04.179Z,968.92
2022-08-22T02:58:04.173Z,968.86
2022-08-22T02:59:04.196Z,968.85
2022-08-22T03:00:04.163Z,968.83
2022-08-22T03:01:04.146Z,968.83
2022-08-22T03:02:04.105Z,968.87
2022-08-22T03:03:04.160Z,968.83
2022-08-22T03:04:04.108Z,968.88
2022-08-22T03:05:04.045Z,968.83
2022-08-22T03:06:04.033Z,968.87
2022-08-22T03:07:04.051Z,968.86
2022-08-22T03:08:04.003Z,968.82
2022-08-22T03:09:04.010Z,968.82
2022-08-22T03:10:03.968Z,968.84
2022-08-22T03:11:03.964Z,968.81
2022-08-22T03:12:03.973Z,968.80
2022-08-22T03:13:03.922Z,968.79
2022-08-22T03:14:03.944Z,968.74
2022-08-22T03:15:03.908Z,968.82
2022-08-22T03:16:03.885Z,968.76
2022-08-22T03:17:03.862Z,968.77
2022-08-22T03:18:03.905Z,968.84
2022-08-22T03:19:03.867Z,968.87
2022-08-22T03:20:03.820Z,968.82
2022-08-22T03:21:03.787Z,968.85
2022-08-22T03:22:03.808Z,968.84
2022-08-22T03:23:03.836Z,968.86
2022-08-22T03:24:03.775Z,968.84
2022-08-22T03:25:03.728Z,968.87
2022-08-22T03:26:07.448Z,968.85
2022-08-22T03:27:03.688Z,968.84
2022-08-22T03:28:03.674Z,968.86
2022-08-22T03:29:03.698Z,968.84
2022-08-22T03:30:03.636Z,968.83
2022-08-22T03:31:03.642Z,968.79
2022-08-22T03:32:03.606Z,968.79
2022-08-22T03:33:03.704Z,968.80
2022-08-22T03:34:03.607Z,968.81
2022-08-22T03:35:03.566Z,968.77
2022-08-22T03:36:03.544Z,968.78
2022-08-22T03:37:03.529Z,968.79
2022-08-22T03:38:03.509Z,968.77
2022-08-22T03:39:03.543Z,968.78
2022-08-22T03:40:04.652Z,968.76
2022-08-22T03:41:03.463Z,968.79
2022-08-22T03:42:03.455Z,968.75
2022-08-22T03:43:03.995Z,968.79
2022-08-22T03:44:03.499Z,968.80
2022-08-22T03:45:03.396Z,968.75
2022-08-22T03:46:03.386Z,968.76
2022-08-22T03:47:03.361Z,968.77
2022-08-22T03:48:03.351Z,968.72
2022-08-22T03:49:03.353Z,968.80
2022-08-22T03:50:03.305Z,968.76
2022-08-22T03:51:03.365Z,968.77
2022-08-22T03:52:03.279Z,968.79
2022-08-22T03:53:03.338Z,968.81
2022-08-22T03:54:03.282Z,968.78
2022-08-22T03:55:03.224Z,968.80
2022-08-22T03:56:03.205Z,968.82
2022-08-22T03:57:03.246Z,968.80
2022-08-22T03:58:03.165Z,968.81
2022-08-22T03:59:03.217Z,968.79
2022-08-22T04:00:04.148Z,968.80
2022-08-22T04:01:03.183Z,968.80
2022-08-22T04:02:03.208Z,968.85
2022-08-22T04:03:04.128Z,968.86
2022-08-22T04:04:03.102Z,968.82
2022-08-22T04:05:03.056Z,968.84
2022-08-22T04:06:03.050Z,968.86
2022-08-22T04:07:03.023Z,968.94
2022-08-22T04:08:03.011Z,968.93
2022-08-22T04:09:03.049Z,968.93
2022-08-22T04:10:03.013Z,968.95
2022-08-22T04:11:02.962Z,968.91
2022-08-22T04:12:02.963Z,968.89
2022-08-22T04:13:03.013Z,968.95
2022-08-22T04:14:02.914Z,968.89
2022-08-22T04:15:02.893Z,968.91
2022-08-22T04:16:02.890Z,968.92
2022-08-22T04:17:02.875Z,968.90
2022-08-22T04:18:02.871Z,968.97
2022-08-22T04:19:02.822Z,968.94
2022-08-22T04:20:02.852Z,968.90
2022-08-22T04:21:02.798Z,968.92
2022-08-22T04:22:02.772Z,968.95
2022-08-22T04:23:02.879Z,968.89
2022-08-22T04:24:02.807Z,968.93
2022-08-22T04:25:07.117Z,968.88
2022-08-22T04:26:12.417Z,968.89
2022-08-22T04:27:03.691Z,968.90
2022-08-22T04:28:02.706Z,968.94
2022-08-22T04:29:02.663Z,968.93
2022-08-22T04:30:02.656Z,968.96
2022-08-22T04:31:02.618Z,968.98
2022-08-22T04:32:02.621Z,968.95
2022-08-22T04:33:02.687Z,968.98
2022-08-22T04:34:02.591Z,969.00
2022-08-22T04:35:02.659Z,969.03
2022-08-22T04:36:02.562Z,969.01
2022-08-22T04:37:02.533Z,969.01
2022-08-22T04:38:02.547Z,969.06
2022-08-22T04:39:02.494Z,968.99
2022-08-22T04:40:02.531Z,968.98
2022-08-22T04:41:04.549Z,969.05
2022-08-22T04:42:16.374Z,969.05
2022-08-22T04:43:04.508Z,969.08
2022-08-22T04:44:02.418Z,969.03
2022-08-22T04:45:02.411Z,969.04
2022-08-22T04:46:02.500Z,969.02
2022-08-22T04:47:02.372Z,969.06
2022-08-22T04:48:02.383Z,969.06
2022-08-22T04:49:02.336Z,969.09
2022-08-22T04:50:02.325Z,969.09
2022-08-22T04:51:02.326Z,969.14
2022-08-22T04:52:02.365Z,969.16
2022-08-22T04:53:02.439Z,969.18
2022-08-22T04:54:02.266Z,969.19
2022-08-22T04:55:02.272Z,969.17
2022-08-22T04:56:06.762Z,969.19
2022-08-22T04:57:04.294Z,969.14
2022-08-22T04:58:02.215Z,969.19
2022-08-22T04:59:02.956Z,969.12
2022-08-22T05:00:02.211Z,969.15
2022-08-22T05:01:03.135Z,969.17
2022-08-22T05:02:02.207Z,969.10
2022-08-22T05:03:02.198Z,969.10
2022-08-22T05:04:02.105Z,969.15
2022-08-22T05:05:02.070Z,969.13
2022-08-22T05:06:02.065Z,969.15
2022-08-22T05:07:02.056Z,969.08
2022-08-22T05:08:02.084Z,969.17
2022-08-22T05:09:02.011Z,969.09
2022-08-22T05:10:09.334Z,969.14
2022-08-22T05:11:02.972Z,969.09
2022-08-22T05:12:01.955Z,969.11
2022-08-22T05:13:02.085Z,969.09
2022-08-22T05:14:01.916Z,969.15
2022-08-22T05:15:01.899Z,969.20
2022-08-22T05:16:01.875Z,969.18
2022-08-22T05:17:01.864Z,969.19
2022-08-22T05:18:01.894Z,969.23
2022-08-22T05:19:01.872Z,969.17
2022-08-22T05:20:01.810Z,969.18
2022-08-22T05:21:01.790Z,969.18
2022-08-22T05:22:01.774Z,969.24
2022-08-22T05:23:01.824Z,969.23
2022-08-22T05:24:01.734Z,969.19
2022-08-22T05:25:01.725Z,969.22
2022-08-22T05:26:01.719Z,969.19
2022-08-22T05:27:01.691Z,969.19
2022-08-22T05:28:01.704Z,969.24
2022-08-22T05:29:01.651Z,969.17
2022-08-22T05:30:01.855Z,969.15
2022-08-22T05:31:01.645Z,969.11
2022-08-22T05:32:01.609Z,969.11
2022-08-22T05:33:02.659Z,969.14
2022-08-22T05:34:01.579Z,969.16
2022-08-22T05:35:01.562Z,969.17
2022-08-22T05:36:01.553Z,969.20
2022-08-22T05:37:01.514Z,969.11
2022-08-22T05:38:01.549Z,969.19
2022-08-22T05:39:01.499Z,969.16
2022-08-22T05:40:01.535Z,969.23
2022-08-22T05:41:01.483Z,969.16
2022-08-22T05:42:01.454Z,969.22
2022-08-22T05:43:01.492Z,969.15
2022-08-22T05:44:01.404Z,969.17
2022-08-22T05:45:01.395Z,969.25
2022-08-22T05:46:01.453Z,969.22
2022-08-22T05:47:01.385Z,969.23
2022-08-22T05:48:01.377Z,969.20
2022-08-22T05:49:01.319Z,969.20
2022-08-22T05:50:01.369Z,969.17
2022-08-22T05:51:01.337Z,969.17
2022-08-22T05:52:01.284Z,969.13
2022-08-22T05:53:01.298Z,969.17
2022-08-22T05:54:01.278Z,969.16
2022-08-22T05:55:01.235Z,969.31
2022-08-22T05:56:01.221Z,969.31
2022-08-22T05:57:03.903Z,969.29
2022-08-22T05:58:01.230Z,969.34
2022-08-22T05:59:01.184Z,969.30
2022-08-22T06:00:01.154Z,969.33
2022-08-22T06:01:01.196Z,969.32
2022-08-22T06:02:01.197Z,969.34
2022-08-22T06:03:02.247Z,969.30
2022-08-22T06:04:01.091Z,969.32
2022-08-22T06:05:01.074Z,969.34
2022-08-22T06:06:01.053Z,969.40
2022-08-22T06:07:01.032Z,969.34
2022-08-22T06:08:01.051Z,969.41
2022-08-22T06:09:01.167Z,969.39
2022-08-22T06:10:00.995Z,969.33
2022-08-22T06:11:00.988Z,969.38
2022-08-22T06:12:00.961Z,969.29
2022-08-22T06:13:00.990Z,969.31
2022-08-22T06:14:00.929Z,969.29
2022-08-22T06:15:00.902Z,969.25
2022-08-22T06:16:01.898Z,969.24
2022-08-22T06:17:00.908Z,969.27
2022-08-22T06:18:01.070Z,969.31
2022-08-22T06:19:00.855Z,969.30
2022-08-22T06:20:33.217Z,969.35
2022-08-22T06:21:00.839Z,969.33
2022-08-22T06:22:00.804Z,969.36
2022-08-22T06:23:00.849Z,969.42
2022-08-22T06:24:00.790Z,969.37
2022-08-22T06:25:00.765Z,969.38
2022-08-22T06:26:00.788Z,969.41
2022-08-22T06:27:00.735Z,969.35
2022-08-22T06:28:00.752Z,969.35
2022-08-22T06:29:00.711Z,969.37
2022-08-22T06:30:00.697Z,969.35
2022-08-22T06:31:00.675Z,969.37
2022-08-22T06:32:00.668Z,969.38
2022-08-22T06:33:00.999Z,969.39
2022-08-22T06:34:00.625Z,969.43
2022-08-22T06:35:00.623Z,969.42
2022-08-22T06:36:00.594Z,969.40
2022-08-22T06:37:00.590Z,969.39
2022-08-22T06:38:00.666Z,969.37
2022-08-22T06:39:00.557Z,969.21
2022-08-22T06:40:00.618Z,969.25
2022-08-22T06:41:00.528Z,969.29
2022-08-22T06:42:00.503Z,969.39
2022-08-22T06:43:00.529Z,969.41
2022-08-22T06:44:00.485Z,969.43
2022-08-22T06:45:00.462Z,969.42
2022-08-22T06:46:00.451Z,969.43
2022-08-22T06:47:00.420Z,969.46
2022-08-22T06:48:01.040Z,969.44
2022-08-22T06:49:01.435Z,969.46
2022-08-22T06:50:00.374Z,969.49
2022-08-22T06:51:00.369Z,969.47
2022-08-22T06:52:00.355Z,969.50
2022-08-22T06:53:00.344Z,969.46
2022-08-22T06:54:00.351Z,969.50
2022-08-22T06:55:00.430Z,969.49
2022-08-22T06:56:00.278Z,969.53
2022-08-22T06:57:00.289Z,969.50
2022-08-22T06:58:00.435Z,969.45
2022-08-22T06:59:00.275Z,969.49
2022-08-22T07:00:00.234Z,969.46
2022-08-22T07:01:11.067Z,969.46
2022-08-22T07:02:01.250Z,969.42
2022-08-22T07:03:00.170Z,969.45
2022-08-22T07:04:00.196Z,969.39
2022-08-22T07:05:00.205Z,969.33
2022-08-22T07:06:00.139Z,969.33
2022-08-22T07:07:00.111Z,969.32
2022-08-22T07:08:00.290Z,969.23
2022-08-22T07:09:00.153Z,969.38
2022-08-22T07:10:01.079Z,969.34
2022-08-22T07:11:00.166Z,969.31
2022-08-22T07:12:00.047Z,969.39
2022-08-22T07:13:00.026Z,969.43
2022-08-22T07:14:00.110Z,969.53
2022-08-22T07:14:59.997Z,969.51
2022-08-22T07:15:59.992Z,969.60
2022-08-22T07:16:59.967Z,969.56
2022-08-22T07:18:00.072Z,969.58
2022-08-22T07:18:59.968Z,969.53
2022-08-22T07:19:59.923Z,969.54
2022-08-22T07:20:59.923Z,969.55
2022-08-22T07:21:59.900Z,969.57
2022-08-22T07:22:59.917Z,969.56
2022-08-22T07:23:59.894Z,969.56
2022-08-22T07:24:59.859Z,969.55
2022-08-22T07:25:59.862Z,969.56
2022-08-22T07:26:59.821Z,969.54
2022-08-22T07:27:59.941Z,969.57
2022-08-22T07:28:59.826Z,969.48
2022-08-22T07:29:59.835Z,969.58
2022-08-22T07:30:59.905Z,969.53
2022-08-22T07:31:59.750Z,969.47
2022-08-22T07:33:01.490Z,969.54
2022-08-22T07:34:00.757Z,969.48
2022-08-22T07:34:59.712Z,969.54
2022-08-22T07:35:59.728Z,969.56
2022-08-22T07:36:59.700Z,969.55
2022-08-22T07:37:59.814Z,969.53
2022-08-22T07:38:59.692Z,969.56
2022-08-22T07:39:59.683Z,969.51
2022-08-22T07:40:59.660Z,969.55
2022-08-22T07:41:59.623Z,969.47
2022-08-22T07:42:59.589Z,969.47
2022-08-22T07:43:59.626Z,969.50
2022-08-22T07:44:59.596Z,969.51
2022-08-22T07:45:59.559Z,969.54
2022-08-22T07:46:59.561Z,969.48
2022-08-22T07:47:59.574Z,969.43
2022-08-22T07:49:09.173Z,969.32
2022-08-22T07:50:01.508Z,969.49
2022-08-22T07:50:59.488Z,969.52
2022-08-22T07:51:59.481Z,969.49
2022-08-22T07:53:00.428Z,969.44
2022-08-22T07:54:00.981Z,969.43
2022-08-22T07:55:00.440Z,969.42
2022-08-22T07:55:59.431Z,969.39
2022-08-22T07:56:59.412Z,969.40
2022-08-22T07:57:59.657Z,969.36
2022-08-22T07:58:59.431Z,969.33
2022-08-22T07:59:59.415Z,969.43
2022-08-22T08:00:59.380Z,969.39
2022-08-22T08:01:59.397Z,969.31
2022-08-22T08:02:59.355Z,969.35
2022-08-22T08:03:59.357Z,969.49
2022-08-22T08:04:59.314Z,969.51
2022-08-22T08:05:59.290Z,969.51
2022-08-22T08:06:59.288Z,969.44
2022-08-22T08:07:59.400Z,969.48
2022-08-22T08:08:59.309Z,969.39
2022-08-22T08:09:59.243Z,969.41
2022-08-22T08:10:59.229Z,969.33
2022-08-22T08:11:59.216Z,969.38
2022-08-22T08:13:02.163Z,969.38
2022-08-22T08:13:59.231Z,969.40
2022-08-22T08:14:59.185Z,969.38
2022-08-22T08:15:59.174Z,969.37
2022-08-22T08:16:59.256Z,969.34
2022-08-22T08:17:59.272Z,969.29
2022-08-22T08:18:59.154Z,969.31
2022-08-22T08:19:59.111Z,969.40
2022-08-22T08:20:59.174Z,969.39
2022-08-22T08:21:59.088Z,969.36
2022-08-22T08:22:59.077Z,969.37
2022-08-22T08:23:59.092Z,969.32
2022-08-22T08:24:59.052Z,969.27
2022-08-22T08:25:59.026Z,969.31
2022-08-22T08:26:59.019Z,969.32
2022-08-22T08:27:59.082Z,969.28
2022-08-22T08:28:59.024Z,969.32
2022-08-22T08:29:58.974Z,969.34
2022-08-22T08:30:59.131Z,969.33
2022-08-22T08:31:58.956Z,969.30
2022-08-22T08:33:24.441Z,969.30
2022-08-22T08:33:59.949Z,969.31
2022-08-22T08:34:58.905Z,969.36
2022-08-22T08:36:02.845Z,969.35
2022-08-22T08:36:58.994Z,969.34
2022-08-22T08:37:59.013Z,969.34
2022-08-22T08:38:58.918Z,969.32
2022-08-22T08:39:58.938Z,969.35
2022-08-22T08:40:58.850Z,969.26
2022-08-22T08:41:58.821Z,969.10
2022-08-22T08:42:58.807Z,969.31
2022-08-22T08:43:58.818Z,969.23
2022-08-22T08:44:58.779Z,969.21
2022-08-22T08:45:59.119Z,969.28
2022-08-22T08:46:58.754Z,969.33
2022-08-22T08:47:58.925Z,969.34
2022-08-22T08:48:58.759Z,969.30
2022-08-22T08:49:58.719Z,969.36
2022-08-22T08:50:58.709Z,969.41
2022-08-22T08:51:58.682Z,969.39
2022-08-22T08:52:58.678Z,969.47
2022-08-22T08:53:58.694Z,969.71
2022-08-22T08:54:58.687Z,969.66
2022-08-22T08:55:58.644Z,969.58
2022-08-22T08:56:58.658Z,969.53
2022-08-22T08:57:58.726Z,969.46
2022-08-22T08:58:59.635Z,969.38
2022-08-22T08:59:58.582Z,969.55
2022-08-22T09:00:59.401Z,969.42
2022-08-22T09:01:58.564Z,969.35
2022-08-22T09:02:58.538Z,969.39
2022-08-22T09:03:58.587Z,969.43
2022-08-22T09:04:58.508Z,969.65
2022-08-22T09:05:58.531Z,969.72
2022-08-22T09:07:01.347Z,969.68
2022-08-22T09:07:58.682Z,969.69
2022-08-22T09:08:58.477Z,969.50
2022-08-22T09:09:58.443Z,969.60
2022-08-22T09:10:58.452Z,969.59
2022-08-22T09:11:58.406Z,969.45
2022-08-22T09:13:11.593Z,969.45
2022-08-22T09:13:59.403Z,969.44
2022-08-22T09:14:58.371Z,969.46
2022-08-22T09:16:04.489Z,969.36
2022-08-22T09:16:59.342Z,969.35
2022-08-22T09:17:58.456Z,969.34
2022-08-22T09:18:58.349Z,969.38
2022-08-22T09:19:58.305Z,969.39
2022-08-22T09:20:58.300Z,969.40
2022-08-22T09:21:58.275Z,969.39
2022-08-22T09:22:58.264Z,969.39
2022-08-22T09:23:58.281Z,969.31
2022-08-22T09:24:58.236Z,969.26
2022-08-22T09:25:58.249Z,969.28
2022-08-22T09:26:58.205Z,969.30
2022-08-22T09:27:58.424Z,969.28
2022-08-22T09:28:58.214Z,969.29
2022-08-22T09:29:59.839Z,969.27
2022-08-22T09:30:58.161Z,969.28
2022-08-22T09:32:00.169Z,969.26
2022-08-22T09:32:59.118Z,969.21
2022-08-22T09:33:58.163Z,969.19
2022-08-22T09:34:58.135Z,969.17
2022-08-22T09:35:58.094Z,969.18
2022-08-22T09:36:58.076Z,969.17
2022-08-22T09:37:58.227Z,969.16
2022-08-22T09:38:58.094Z,969.11
2022-08-22T09:39:58.109Z,969.15
2022-08-22T09:40:58.029Z,969.10
2022-08-22T09:41:58.011Z,969.10
2022-08-22T09:42:58.133Z,969.13
2022-08-22T09:43:58.022Z,969.09
2022-08-22T09:44:57.978Z,969.05
2022-08-22T09:45:57.964Z,969.06
2022-08-22T09:46:57.970Z,969.12
2022-08-22T09:48:02.158Z,969.13
2022-08-22T09:48:58.958Z,969.06
2022-08-22T09:49:57.933Z,969.09
2022-08-22T09:51:08.305Z,969.02
2022-08-22T09:52:03.655Z,969.02
2022-08-22T09:52:59.011Z,969.06
2022-08-22T09:53:57.913Z,969.12
2022-08-22T09:54:57.877Z,969.03
2022-08-22T09:55:57.845Z,969.07
2022-08-22T09:56:57.839Z,969.10
2022-08-22T09:57:57.819Z,969.00
2022-08-22T09:58:57.851Z,969.05
2022-08-22T09:59:58.089Z,969.04
2022-08-22T10:00:57.805Z,969.01
2022-08-22T10:01:57.772Z,969.01
2022-08-22T10:02:57.774Z,969.03
2022-08-22T10:03:57.782Z,969.00
2022-08-22T10:04:58.172Z,969.07
2022-08-22T10:05:57.716Z,969.06
2022-08-22T10:06:57.698Z,969.02
2022-08-22T10:07:57.702Z,969.12
2022-08-22T10:08:57.807Z,969.04
2022-08-22T10:09:57.687Z,969.11
2022-08-22T10:10:57.692Z,969.01
2022-08-22T10:11:57.647Z,969.01
2022-08-22T10:12:57.807Z,969.00
2022-08-22T10:14:01.204Z,968.98
2022-08-22T10:14:57.614Z,969.00
2022-08-22T10:15:57.604Z,969.10
2022-08-22T10:16:57.583Z,968.99
2022-08-22T10:17:57.570Z,968.99
2022-08-22T10:19:00.557Z,968.94
2022-08-22T10:19:58.534Z,968.93
2022-08-22T10:20:57.519Z,968.95
2022-08-22T10:21:57.509Z,968.87
2022-08-22T10:22:57.598Z,968.86
2022-08-22T10:23:57.539Z,968.86
2022-08-22T10:24:58.609Z,968.86
2022-08-22T10:25:57.468Z,968.79
2022-08-22T10:26:57.452Z,968.82
2022-08-22T10:27:57.443Z,968.83
2022-08-22T10:28:57.453Z,968.78
2022-08-22T10:29:57.450Z,968.77
2022-08-22T10:30:57.411Z,968.79
2022-08-22T10:31:59.420Z,968.75
2022-08-22T10:32:57.395Z,968.73
2022-08-22T10:33:57.343Z,968.76
2022-08-22T10:34:57.326Z,968.78
2022-08-22T10:35:57.326Z,968.80
2022-08-22T10:36:57.300Z,968.74
2022-08-22T10:37:57.331Z,968.75
2022-08-22T10:38:57.271Z,968.79
2022-08-22T10:39:57.351Z,968.82
2022-08-22T10:40:57.245Z,968.74
2022-08-22T10:41:57.539Z,968.76
2022-08-22T10:42:59.419Z,968.74
2022-08-22T10:44:01.555Z,968.74
2022-08-22T10:44:58.189Z,968.78
2022-08-22T10:45:57.170Z,968.75
2022-08-22T10:46:57.244Z,968.70
2022-08-22T10:47:57.141Z,968.66
2022-08-22T10:48:57.162Z,968.70
2022-08-22T10:49:57.119Z,968.66
2022-08-22T10:50:57.109Z,968.68
2022-08-22T10:51:57.092Z,968.70
2022-08-22T10:52:57.111Z,968.76
2022-08-22T10:53:57.082Z,968.68
2022-08-22T10:54:57.065Z,968.71
2022-08-22T10:55:57.034Z,968.73
2022-08-22T10:56:57.022Z,968.66
2022-08-22T10:57:57.029Z,968.58
2022-08-22T10:58:56.989Z,968.65
2022-08-22T10:59:56.980Z,968.66
2022-08-22T11:00:56.995Z,968.57
2022-08-22T11:01:57.061Z,968.69
2022-08-22T11:02:58.497Z,968.71
2022-08-22T11:03:56.990Z,968.67
2022-08-22T11:04:56.905Z,968.67
2022-08-22T11:05:56.912Z,968.66
2022-08-22T11:06:56.886Z,968.76
2022-08-22T11:07:56.917Z,968.72
2022-08-22T11:08:56.863Z,968.72
2022-08-22T11:09:56.895Z,968.71
2022-08-22T11:10:56.820Z,968.74
2022-08-22T11:11:56.792Z,968.71
2022-08-22T11:12:56.872Z,968.78
2022-08-22T11:13:56.779Z,968.65
2022-08-22T11:14:56.788Z,968.75
2022-08-22T11:15:56.738Z,968.73
2022-08-22T11:16:56.712Z,968.70
2022-08-22T11:17:56.753Z,968.70
2022-08-22T11:18:57.977Z,968.69
2022-08-22T11:19:57.675Z,968.68
2022-08-22T11:20:56.668Z,968.64
2022-08-22T11:21:56.654Z,968.70
2022-08-22T11:22:57.192Z,968.63
2022-08-22T11:23:56.600Z,968.63
2022-08-22T11:24:58.044Z,968.66
2022-08-22T11:25:56.574Z,968.65
2022-08-22T11:26:56.583Z,968.66
2022-08-22T11:27:56.576Z,968.64
2022-08-22T11:28:56.554Z,968.58
2022-08-22T11:29:56.515Z,968.63
2022-08-22T11:30:56.492Z,968.61
2022-08-22T11:32:01.454Z,968.58
2022-08-22T11:32:58.908Z,968.57
2022-08-22T11:33:57.462Z,968.55
2022-08-22T11:34:56.434Z,968.61
2022-08-22T11:35:56.430Z,968.64
2022-08-22T11:36:56.432Z,968.62
2022-08-22T11:37:56.608Z,968.61
2022-08-22T11:38:56.397Z,968.60
2022-08-22T11:39:56.431Z,968.64
2022-08-22T11:40:56.361Z,968.61
2022-08-22T11:41:56.331Z,968.52
2022-08-22T11:42:56.370Z,968.58
2022-08-22T11:43:56.312Z,968.58
2022-08-22T11:44:56.296Z,968.52
2022-08-22T11:45:56.333Z,968.50
2022-08-22T11:46:56.331Z,968.54
2022-08-22T11:47:56.272Z,968.53
2022-08-22T11:48:56.227Z,968.59
2022-08-22T11:49:56.211Z,968.55
2022-08-22T11:50:56.223Z,968.58
2022-08-22T11:51:56.190Z,968.59
2022-08-22T11:52:56.264Z,968.54
2022-08-22T11:53:56.186Z,968.55
2022-08-22T11:54:56.148Z,968.54
2022-08-22T11:55:56.163Z,968.61
2022-08-22T11:56:56.112Z,968.61
2022-08-22T11:57:56.119Z,968.58
2022-08-22T11:58:56.076Z,968.59
2022-08-22T11:59:56.086Z,968.57
2022-08-22T12:00:56.039Z,968.56
2022-08-22T12:01:56.102Z,968.53
2022-08-22T12:02:56.071Z,968.51
2022-08-22T12:03:58.629Z,968.53
2022-08-22T12:04:55.977Z,968.46
2022-08-22T12:05:55.975Z,968.49
2022-08-22T12:06:56.216Z,968.50
2022-08-22T12:07:55.995Z,968.46
2022-08-22T12:08:55.912Z,968.44
2022-08-22T12:09:55.898Z,968.46
2022-08-22T12:10:55.895Z,968.45
2022-08-22T12:11:55.864Z,968.42
2022-08-22T12:12:55.941Z,968.43
2022-08-22T12:14:06.200Z,968.45
2022-08-22T12:14:56.827Z,968.45
2022-08-22T12:15:55.882Z,968.47
2022-08-22T12:16:55.801Z,968.48
2022-08-22T12:18:01.532Z,968.47